Time;durP1;ratioP1;P1;durP2;ratioP2;P2;SDS_P1;SDS_P2;PMS_P1;PMS_P2;Temp;Humidity;BMP_temperature;BMP_pressure;BME280_temperature;BME280_humidity;BME280_pressure;Samples;Min_cycle;Max_cycle;Signal;HPM_P1;HPM_P2
2020/12/27 00:00:08;;;;;;;3.30;1.97;;;;;;;-0.63;100.00;98127.53;5030068;28;20225;-72
2020/12/27 00:02:35;;;;;;;5.17;2.37;;;;;;;-0.57;100.00;98130.59;5045441;23;20578;-76
2020/12/27 00:05:03;;;;;;;5.10;2.30;;;;;;;-0.51;100.00;98125.66;5014825;28;20560;-76
2020/12/27 00:07:30;;;;;;;5.53;2.50;;;;;;;-0.54;100.00;98113.63;5015927;28;20211;-78
2020/12/27 00:09:57;;;;;;;5.93;2.33;;;;;;;-0.52;100.00;98112.72;5015099;28;20195;-74
2020/12/27 00:12:23;;;;;;;5.07;2.17;;;;;;;-0.52;100.00;98108.28;5022209;28;20233;-76
2020/12/27 00:14:50;;;;;;;4.03;2.50;;;;;;;-0.52;100.00;98107.47;5023341;28;20202;-77
2020/12/27 00:17:18;;;;;;;4.43;2.53;;;;;;;-0.44;100.00;98104.03;5018094;28;20628;-76
2020/12/27 00:19:45;;;;;;;6.23;2.40;;;;;;;-0.57;100.00;98100.81;5016469;28;20683;-74
2020/12/27 00:22:12;;;;;;;3.60;2.33;;;;;;;-0.57;100.00;98105.22;5015646;28;20225;-74
2020/12/27 00:24:39;;;;;;;4.97;2.30;;;;;;;-0.62;100.00;98092.50;5015583;28;20257;-77
2020/12/27 00:27:06;;;;;;;4.20;2.30;;;;;;;-0.52;100.00;98099.59;5014763;28;20281;-76
2020/12/27 00:29:33;;;;;;;4.77;2.20;;;;;;;-0.51;100.00;98078.47;5014617;28;20558;-78
2020/12/27 00:32:00;;;;;;;4.67;2.30;;;;;;;-0.54;100.00;98070.91;5006365;28;20256;-76
2020/12/27 00:34:27;;;;;;;5.13;2.30;;;;;;;-0.64;100.00;98060.34;5014605;28;20206;-78
2020/12/27 00:36:57;;;;;;;4.53;2.50;;;;;;;-0.53;100.00;98043.72;5014670;28;20203;-75
2020/12/27 00:39:24;;;;;;;3.37;2.27;;;;;;;-0.61;100.00;98040.91;5016555;28;20321;-76
2020/12/27 00:41:51;;;;;;;4.97;2.43;;;;;;;-0.57;100.00;98029.22;5018538;28;20733;-77
2020/12/27 00:44:18;;;;;;;4.50;2.27;;;;;;;-0.51;100.00;98011.19;5017970;28;20207;-77
2020/12/27 00:46:49;;;;;;;2.90;1.80;;;;;;;-0.54;100.00;98010.63;5014671;28;20203;-77
2020/12/27 00:49:16;;;;;;;3.97;2.23;;;;;;;-0.52;100.00;98007.88;5017334;28;20287;-77
2020/12/27 00:51:44;;;;;;;3.53;1.97;;;;;;;-0.49;100.00;98011.06;5018137;28;20639;-77
2020/12/27 00:54:11;;;;;;;3.43;2.00;;;;;;;-0.55;100.00;97999.28;5014359;28;20341;-75
2020/12/27 00:56:37;;;;;;;3.87;1.80;;;;;;;-0.54;100.00;97994.91;5014229;28;20209;-75
2020/12/27 00:59:05;;;;;;;5.37;2.00;;;;;;;-0.50;100.00;97986.63;5013712;28;20978;-77
2020/12/27 01:01:32;;;;;;;5.57;2.73;;;;;;;-0.51;100.00;97973.66;5011578;28;20203;-76
2020/12/27 01:03:59;;;;;;;3.90;1.80;;;;;;;-0.54;100.00;97966.88;5012532;28;20260;-75
2020/12/27 01:06:26;;;;;;;3.63;2.30;;;;;;;-0.49;100.00;97954.22;5013607;28;20203;-77
2020/12/27 01:08:54;;;;;;;4.50;2.57;;;;;;;-0.41;100.00;97948.28;5015264;28;20210;-77
2020/12/27 01:11:21;;;;;;;5.73;2.27;;;;;;;-0.38;100.00;97951.50;5011983;28;20203;-78
2020/12/27 01:13:48;;;;;;;5.17;2.10;;;;;;;-0.31;100.00;97949.97;5012926;28;20231;-79
2020/12/27 01:16:18;;;;;;;4.53;2.43;;;;;;;-0.38;100.00;97948.88;5012985;28;20210;-78
2020/12/27 01:18:46;;;;;;;4.80;2.20;;;;;;;-0.34;100.00;97949.44;5008080;28;20199;-78
2020/12/27 01:21:20;;;;;;;5.40;2.13;;;;;;;-0.27;100.00;97951.38;5012560;28;20206;-77
2020/12/27 01:23:47;;;;;;;4.00;1.97;;;;;;;-0.33;100.00;97948.47;5011472;28;20236;-76
2020/12/27 01:26:15;;;;;;;4.53;2.47;;;;;;;-0.37;100.00;97941.81;5012591;28;20590;-77
2020/12/27 01:28:42;;;;;;;3.73;2.47;;;;;;;-0.34;100.00;97942.38;5014580;28;20214;-78
2020/12/27 01:31:08;;;;;;;5.30;2.50;;;;;;;-0.38;100.00;97932.31;5017873;28;20194;-78
2020/12/27 01:33:35;;;;;;;4.47;2.20;;;;;;;-0.45;100.00;97934.63;5010418;28;20669;-76
2020/12/27 01:36:02;;;;;;;4.60;2.23;;;;;;;-0.43;100.00;97929.25;5010967;28;20202;-77
2020/12/27 01:38:29;;;;;;;4.73;2.23;;;;;;;-0.50;100.00;97921.09;5013218;28;20222;-76
2020/12/27 01:41:03;;;;;;;6.07;2.50;;;;;;;-0.43;100.00;97917.00;5008845;28;20646;-76
2020/12/27 01:43:31;;;;;;;3.40;2.23;;;;;;;-0.49;100.00;97906.22;5022640;28;20228;-76
2020/12/27 01:45:58;;;;;;;5.80;2.37;;;;;;;-0.44;100.00;97906.66;5019881;28;20207;-75
2020/12/27 01:48:25;;;;;;;3.10;2.00;;;;;;;-0.45;100.00;97886.66;5014471;28;20329;-74
2020/12/27 01:50:52;;;;;;;7.23;2.23;;;;;;;-0.45;100.00;97892.69;5014142;28;20199;-75
2020/12/27 01:53:19;;;;;;;6.43;2.10;;;;;;;-0.52;100.00;97887.31;5013665;28;20236;-74
2020/12/27 01:55:46;;;;;;;4.37;2.30;;;;;;;-0.56;100.00;97879.72;5014222;28;20230;-75
2020/12/27 01:58:20;;;;;;;4.13;2.20;;;;;;;-0.60;100.00;97875.72;5012640;28;20211;-76
2020/12/27 02:00:48;;;;;;;8.77;3.00;;;;;;;-0.51;100.00;97864.41;5013104;28;20230;-77
2020/12/27 02:03:15;;;;;;;6.77;2.87;;;;;;;-0.47;100.00;97843.19;5012747;28;20230;-75
2020/12/27 02:05:44;;;;;;;4.97;2.30;;;;;;;-0.37;100.00;97837.81;5011847;28;20199;-76
2020/12/27 02:08:12;;;;;;;5.57;2.90;;;;;;;-0.41;100.00;97827.72;5012136;28;20202;-76
2020/12/27 02:10:39;;;;;;;6.93;2.50;;;;;;;-0.49;100.00;97815.31;5015166;28;20195;-74
2020/12/27 02:13:06;;;;;;;8.87;2.20;;;;;;;-0.43;100.00;97809.53;5012847;28;20254;-74
2020/12/27 02:15:32;;;;;;;3.97;2.33;;;;;;;-0.38;100.00;97799.47;5015956;28;20200;-75
2020/12/27 02:18:00;;;;;;;4.97;2.57;;;;;;;-0.37;100.00;97798.50;5016957;28;20203;-77
2020/12/27 02:20:27;;;;;;;6.03;2.23;;;;;;;-0.42;100.00;97784.97;5015100;28;20234;-75
2020/12/27 02:22:54;;;;;;;4.43;2.13;;;;;;;-0.31;100.00;97779.59;5015260;28;20313;-76
2020/12/27 02:25:21;;;;;;;6.27;2.63;;;;;;;-0.24;100.00;97767.56;5014093;28;20198;-75
2020/12/27 02:27:48;;;;;;;3.80;2.37;;;;;;;-0.36;100.00;97765.22;5016397;28;20570;-74
2020/12/27 02:30:16;;;;;;;3.87;2.43;;;;;;;-0.24;100.00;97759.69;5014778;28;20207;-76
2020/12/27 02:32:43;;;;;;;4.90;2.57;;;;;;;-0.25;100.00;97742.31;5015601;28;20353;-75
2020/12/27 02:35:10;;;;;;;6.60;2.23;;;;;;;-0.36;100.00;97750.34;5017448;28;20264;-76
2020/12/27 02:37:36;;;;;;;5.27;2.40;;;;;;;-0.17;100.00;97730.31;5015369;28;20194;-74
2020/12/27 02:40:04;;;;;;;5.07;2.47;;;;;;;-0.46;100.00;97723.31;5014202;28;20241;-76
2020/12/27 02:42:32;;;;;;;4.40;2.60;;;;;;;-0.14;100.00;97712.50;5014354;28;20230;-76
2020/12/27 02:45:10;;;;;;;3.97;1.87;;;;;;;-0.22;100.00;97706.31;5015320;28;20732;-75
2020/12/27 02:47:38;;;;;;;5.50;2.07;;;;;;;-0.21;100.00;97690.41;5014588;28;20213;-75
2020/12/27 02:50:11;;;;;;;4.33;2.17;;;;;;;-0.24;100.00;97678.44;5014781;28;20203;-76
2020/12/27 02:52:38;;;;;;;4.20;2.13;;;;;;;-0.25;100.00;97681.22;5014859;28;20215;-76
2020/12/27 02:55:05;;;;;;;4.00;2.47;;;;;;;-0.21;100.00;97672.06;5014452;28;20565;-76
2020/12/27 02:57:33;;;;;;;4.50;2.43;;;;;;;-0.22;100.00;97653.88;5014604;28;20206;-77
2020/12/27 03:00:00;;;;;;;4.67;2.23;;;;;;;-0.20;100.00;97660.63;5014842;28;20231;-75
2020/12/27 03:02:27;;;;;;;2.80;2.00;;;;;;;-0.06;100.00;97650.50;5014024;28;20235;-77
2020/12/27 03:04:54;;;;;;;5.77;2.23;;;;;;;0.01;100.00;97640.25;5014943;28;20206;-76
2020/12/27 03:07:20;;;;;;;5.00;2.40;;;;;;;-0.07;100.00;97638.38;5014262;28;20203;-75
2020/12/27 03:09:47;;;;;;;2.87;1.70;;;;;;;-0.01;100.00;97623.81;5014488;28;20218;-75
2020/12/27 03:12:14;;;;;;;3.87;1.70;;;;;;;-0.13;100.00;97620.59;5015503;28;20234;-75
2020/12/27 03:14:42;;;;;;;4.43;2.13;;;;;;;-0.21;100.00;97623.09;5014668;28;20232;-78
2020/12/27 03:17:09;;;;;;;3.30;1.83;;;;;;;-0.11;100.00;97613.41;5014935;28;20259;-78
2020/12/27 03:19:35;;;;;;;2.73;2.00;;;;;;;-0.11;100.00;97612.56;5014321;28;20229;-76
2020/12/27 03:22:02;;;;;;;3.10;1.90;;;;;;;-0.22;100.00;97611.94;5014323;28;20223;-77
2020/12/27 03:24:29;;;;;;;4.40;2.53;;;;;;;-0.27;100.00;97607.94;5018336;28;20569;-78
2020/12/27 03:26:56;;;;;;;4.43;2.40;;;;;;;-0.20;100.00;97595.91;5016435;28;20214;-74
2020/12/27 03:29:23;;;;;;;4.00;2.43;;;;;;;-0.22;100.00;97605.72;5014697;28;20207;-76
2020/12/27 03:31:50;;;;;;;5.13;2.60;;;;;;;-0.06;100.00;97597.22;5013957;28;20656;-76
2020/12/27 03:34:17;;;;;;;5.57;2.30;;;;;;;-0.10;100.00;97601.94;5013920;28;20202;-76
2020/12/27 03:36:44;;;;;;;4.97;1.97;;;;;;;-0.23;100.00;97608.47;5014294;28;20687;-76
2020/12/27 03:39:11;;;;;;;5.23;2.30;;;;;;;-0.21;100.00;97596.88;5013997;28;20233;-76
2020/12/27 03:41:38;;;;;;;4.07;2.00;;;;;;;-0.21;100.00;97588.19;5016316;28;20233;-78
2020/12/27 03:44:05;;;;;;;4.77;2.67;;;;;;;-0.22;100.00;97587.38;5020442;28;20238;-77
2020/12/27 03:46:31;;;;;;;4.43;2.50;;;;;;;-0.29;100.00;97578.41;5015563;28;20713;-78
2020/12/27 03:48:59;;;;;;;5.17;2.80;;;;;;;-0.19;100.00;97575.75;5014732;28;20210;-76
2020/12/27 03:51:26;;;;;;;3.77;2.33;;;;;;;-0.25;100.00;97556.19;5014321;28;20207;-76
2020/12/27 03:53:53;;;;;;;3.77;2.03;;;;;;;-0.29;100.00;97538.28;5011221;28;20221;-77
2020/12/27 03:56:23;;;;;;;3.33;2.40;;;;;;;-0.32;100.00;97528.06;5014458;28;20195;-77
2020/12/27 03:58:50;;;;;;;5.27;2.30;;;;;;;-0.37;100.00;97519.81;5013828;28;20246;-77
2020/12/27 04:01:17;;;;;;;4.60;2.63;;;;;;;-0.33;100.00;97513.31;5014664;28;20854;-77
2020/12/27 04:03:43;;;;;;;5.60;2.67;;;;;;;-0.35;100.00;97510.84;5015007;28;20235;-76
2020/12/27 04:06:11;;;;;;;5.77;2.57;;;;;;;-0.35;100.00;97491.69;5018126;28;20260;-77
2020/12/27 04:08:38;;;;;;;7.30;2.33;;;;;;;-0.32;100.00;97497.47;5024529;28;20207;-76
2020/12/27 04:11:05;;;;;;;6.10;2.43;;;;;;;-0.34;100.00;97482.84;5019459;28;20206;-75
2020/12/27 04:13:31;;;;;;;5.57;2.10;;;;;;;-0.27;100.00;97483.91;5012996;28;20234;-76
2020/12/27 04:16:02;;;;;;;4.80;2.60;;;;;;;-0.36;100.00;97474.28;5014927;28;20290;-77
2020/12/27 04:18:29;;;;;;;4.30;2.77;;;;;;;-0.43;100.00;97476.69;5014530;28;20286;-77
2020/12/27 04:20:56;;;;;;;7.10;2.30;;;;;;;-0.41;100.00;97460.78;5013718;28;20219;-76
2020/12/27 04:23:24;;;;;;;4.70;2.43;;;;;;;-0.31;100.00;97458.94;5012581;28;20229;-76
2020/12/27 04:25:50;;;;;;;5.27;2.77;;;;;;;-0.64;100.00;97449.06;5013711;28;20211;-76
2020/12/27 04:28:17;;;;;;;6.03;2.33;;;;;;;-0.51;100.00;97446.91;5013630;28;20195;-76
2020/12/27 04:30:45;;;;;;;3.97;2.20;;;;;;;-0.46;100.00;97448.16;5012429;28;20202;-76
2020/12/27 04:33:12;;;;;;;4.63;2.53;;;;;;;-0.42;100.00;97440.81;5013473;28;20314;-76
2020/12/27 04:35:39;;;;;;;5.00;2.50;;;;;;;-0.57;100.00;97432.63;5013207;28;20241;-76
2020/12/27 04:38:05;;;;;;;4.87;2.30;;;;;;;-0.43;100.00;97424.28;5012212;28;20667;-75
2020/12/27 04:40:33;;;;;;;5.23;2.30;;;;;;;-0.58;100.00;97401.31;5011797;28;20223;-77
2020/12/27 04:43:00;;;;;;;4.13;2.20;;;;;;;-0.52;100.00;97407.78;5012893;28;20238;-77
2020/12/27 04:45:27;;;;;;;4.03;2.40;;;;;;;-0.52;100.00;97416.44;5013881;28;20205;-76
2020/12/27 04:47:54;;;;;;;3.93;2.40;;;;;;;-0.51;100.00;97407.63;5013285;28;20203;-75
2020/12/27 04:50:21;;;;;;;3.93;2.40;;;;;;;-0.54;100.00;97402.69;5013628;28;20640;-76
2020/12/27 04:52:48;;;;;;;4.60;2.37;;;;;;;-0.55;100.00;97401.03;5013488;28;20219;-76
2020/12/27 04:55:15;;;;;;;5.17;2.27;;;;;;;-0.59;100.00;97386.59;5012351;28;20198;-76
2020/12/27 04:57:43;;;;;;;3.73;2.13;;;;;;;-0.52;100.00;97388.47;5017254;28;20206;-76
2020/12/27 05:00:10;;;;;;;4.17;2.17;;;;;;;-0.75;100.00;97379.34;5014715;28;20258;-77
2020/12/27 05:02:37;;;;;;;4.57;2.50;;;;;;;-0.50;100.00;97372.59;5014748;28;20231;-76
2020/12/27 05:05:12;;;;;;;4.50;2.83;;;;;;;-0.49;100.00;97369.81;5014539;28;20203;-76
2020/12/27 05:07:42;;;;;;;6.23;2.27;;;;;;;-0.56;100.00;97360.06;5014113;28;20202;-76
2020/12/27 05:10:09;;;;;;;6.43;2.93;;;;;;;-0.59;100.00;97363.00;5012613;28;20206;-75
2020/12/27 05:12:37;;;;;;;4.83;2.30;;;;;;;-0.46;100.00;97363.44;5012486;28;20227;-76
2020/12/27 05:15:06;;;;;;;7.90;3.00;;;;;;;-0.41;100.00;97364.66;5013237;28;20580;-76
2020/12/27 05:17:33;;;;;;;5.20;2.90;;;;;;;-0.42;100.00;97357.78;5015707;28;20205;-76
2020/12/27 05:20:08;;;;;;;5.57;2.80;;;;;;;-0.41;100.00;97356.81;5021206;28;20222;-77
2020/12/27 05:22:36;;;;;;;6.47;2.53;;;;;;;-0.51;100.00;97350.81;5015859;28;20218;-76
2020/12/27 05:25:05;;;;;;;4.63;2.60;;;;;;;-0.43;100.00;97335.19;5013586;28;20269;-76
2020/12/27 05:27:32;;;;;;;5.40;2.93;;;;;;;-0.42;100.00;97330.75;5013280;28;20198;-76
2020/12/27 05:30:01;;;;;;;4.50;2.40;;;;;;;-0.43;100.00;97318.63;5010792;28;20210;-75
2020/12/27 05:32:31;;;;;;;3.60;2.53;;;;;;;-0.45;100.00;97320.56;5011920;28;20222;-76
2020/12/27 05:34:58;;;;;;;5.37;2.77;;;;;;;-0.40;100.00;97313.88;5009236;28;20201;-76
2020/12/27 05:37:26;;;;;;;4.10;2.43;;;;;;;-0.39;100.00;97304.25;5012219;28;20206;-76
2020/12/27 05:39:53;;;;;;;2.67;1.97;;;;;;;-0.40;100.00;97297.38;5012448;28;20234;-76
2020/12/27 05:42:25;;;;;;;4.70;2.20;;;;;;;-0.32;100.00;97298.25;5011580;28;20223;-76
2020/12/27 05:44:52;;;;;;;3.60;2.20;;;;;;;-0.32;100.00;97286.13;5011737;28;20195;-75
2020/12/27 05:47:20;;;;;;;7.10;3.17;;;;;;;-0.29;100.00;97282.19;5011996;28;20717;-76
2020/12/27 05:49:47;;;;;;;5.10;2.87;;;;;;;-0.31;100.00;97271.06;5017544;28;20662;-77
2020/12/27 05:52:15;;;;;;;4.73;2.50;;;;;;;-0.28;100.00;97273.38;5010519;28;20292;-76
2020/12/27 05:54:46;;;;;;;3.90;2.40;;;;;;;-0.22;100.00;97246.56;5012504;28;20199;-76
2020/12/27 05:57:15;;;;;;;4.50;2.33;;;;;;;-0.22;100.00;97242.31;5011140;28;20206;-76
2020/12/27 05:59:44;;;;;;;4.10;2.43;;;;;;;-0.29;100.00;97232.41;5012682;28;20350;-75
2020/12/27 06:02:38;;;;;;;4.70;2.27;;;;;;;-0.18;100.00;97223.47;5011161;28;20238;-77
2020/12/27 06:05:11;;;;;;;5.37;2.37;;;;;;;-0.24;100.00;97221.47;5024175;23;21352;-78
2020/12/27 06:07:39;;;;;;;4.23;2.60;;;;;;;-0.14;100.00;97224.81;5000641;28;20203;-80
2020/12/27 06:10:12;;;;;;;6.03;2.50;;;;;;;-0.19;100.00;97206.91;5004614;28;20298;-80
2020/12/27 06:13:11;;;;;;;3.83;2.50;;;;;;;-0.14;100.00;97211.72;5018217;28;20194;-78
2020/12/27 06:15:46;;;;;;;4.70;2.50;;;;;;;-0.10;100.00;97208.63;4989954;28;20229;-79
2020/12/27 06:18:14;;;;;;;4.17;2.00;;;;;;;-0.08;100.00;97195.34;5021320;28;20555;-79
2020/12/27 06:20:42;;;;;;;6.73;2.60;;;;;;;-0.14;100.00;97181.06;5021753;28;20270;-78
2020/12/27 06:23:10;;;;;;;4.83;1.93;;;;;;;-0.07;100.00;97178.63;5011806;28;20204;-78
2020/12/27 06:25:38;;;;;;;5.17;2.40;;;;;;;0.05;100.00;97162.50;5010730;28;20215;-79
2020/12/27 06:28:05;;;;;;;4.17;2.43;;;;;;;-0.04;100.00;97152.94;5006735;28;20671;-78
2020/12/27 06:30:35;;;;;;;3.13;1.87;;;;;;;0.03;100.00;97145.25;5008724;28;20309;-78
2020/12/27 06:33:10;;;;;;;4.63;2.40;;;;;;;0.02;100.00;97151.50;5009131;28;20202;-78
2020/12/27 06:35:37;;;;;;;5.50;2.33;;;;;;;0.02;100.00;97152.28;5006276;28;20219;-78
2020/12/27 06:38:15;;;;;;;8.63;2.47;;;;;;;0.03;100.00;97148.72;5001334;28;20199;-78
2020/12/27 06:40:43;;;;;;;4.83;2.20;;;;;;;-0.07;100.00;97147.19;5005169;28;20231;-78
2020/12/27 06:43:19;;;;;;;2.90;1.60;;;;;;;0.11;100.00;97143.50;5003149;28;20210;-78
2020/12/27 06:45:46;;;;;;;6.60;2.40;;;;;;;0.11;100.00;97127.75;5007340;28;20222;-78
2020/12/27 06:48:31;;;;;;;3.93;1.90;;;;;;;0.18;100.00;97127.94;5012759;28;20648;-78
2020/12/27 06:50:58;;;;;;;5.67;2.93;;;;;;;0.34;100.00;97122.75;5006240;28;20564;-78
2020/12/27 06:53:42;;;;;;;3.93;2.00;;;;;;;0.22;100.00;97118.78;5004705;28;20206;-80
2020/12/27 06:56:10;;;;;;;4.80;2.30;;;;;;;0.39;100.00;97110.81;5004631;28;20245;-79
2020/12/27 06:58:38;;;;;;;4.73;2.33;;;;;;;0.33;100.00;97111.47;5015702;28;20203;-79
2020/12/27 07:01:15;;;;;;;3.97;1.97;;;;;;;0.27;100.00;97109.44;5010895;28;20260;-79
2020/12/27 07:03:42;;;;;;;7.73;1.90;;;;;;;0.31;100.00;97102.09;5006514;28;20199;-76
2020/12/27 07:06:23;;;;;;;4.43;2.40;;;;;;;0.36;100.00;97098.00;5003703;28;20239;-79
2020/12/27 07:08:53;;;;;;;5.33;2.03;;;;;;;0.39;100.00;97095.06;5005543;28;20234;-77
2020/12/27 07:11:24;;;;;;;3.30;2.13;;;;;;;0.39;100.00;97087.19;5005547;28;20200;-79
2020/12/27 07:13:54;;;;;;;3.07;1.90;;;;;;;0.51;100.00;97075.41;5006541;28;20241;-81
2020/12/27 07:16:48;;;;;;;7.80;1.83;;;;;;;0.46;100.00;97080.31;5011397;28;20253;-79
2020/12/27 07:19:19;;;;;;;3.27;1.63;;;;;;;0.42;100.00;97062.44;5010363;28;20260;-81
2020/12/27 07:21:47;;;;;;;5.00;1.63;;;;;;;0.47;100.00;97050.47;5004247;28;20203;-81
2020/12/27 07:24:27;;;;;;;3.33;2.00;;;;;;;0.55;100.00;97049.66;5014361;28;20230;-82
2020/12/27 07:26:53;;;;;;;3.23;2.00;;;;;;;0.45;100.00;97044.56;5024958;28;20219;-79
2020/12/27 07:29:22;;;;;;;5.63;1.90;;;;;;;0.59;100.00;97049.19;5023926;28;20211;-82
2020/12/27 07:31:52;;;;;;;3.80;2.03;;;;;;;0.57;100.00;97053.75;5029757;28;20250;-83
2020/12/27 07:34:23;;;;;;;4.10;2.00;;;;;;;0.54;100.00;97054.09;5027010;28;20200;-86
2020/12/27 07:36:57;;;;;;;5.23;2.17;;;;;;;0.54;100.00;97058.50;5017230;28;20227;-82
2020/12/27 07:39:49;;;;;;;3.73;2.10;;;;;;;0.59;100.00;97048.34;5012137;28;20203;-85
2020/12/27 07:42:20;;;;;;;3.30;2.20;;;;;;;0.60;100.00;97045.56;5011724;28;20207;-81
2020/12/27 07:44:47;;;;;;;4.10;1.83;;;;;;;0.64;100.00;97038.19;5011598;28;20698;-82
2020/12/27 07:47:14;;;;;;;3.40;2.10;;;;;;;0.61;100.00;97033.28;5009095;28;20203;-86
2020/12/27 07:49:41;;;;;;;6.00;2.33;;;;;;;0.73;100.00;97030.13;5009124;28;20290;-79
2020/12/27 07:52:08;;;;;;;3.67;2.17;;;;;;;0.77;100.00;97031.44;5020702;28;20675;-77
2020/12/27 07:54:41;;;;;;;4.33;2.30;;;;;;;0.66;100.00;97025.72;5007639;28;20203;-81
2020/12/27 07:57:12;;;;;;;3.73;1.97;;;;;;;0.58;100.00;97020.47;5011983;28;20727;-82
2020/12/27 07:59:39;;;;;;;3.30;2.20;;;;;;;0.76;100.00;97021.09;5007020;28;20215;-78
2020/12/27 08:02:06;;;;;;;4.63;2.47;;;;;;;0.82;100.00;97007.34;5010812;28;20592;-78
2020/12/27 08:04:36;;;;;;;4.50;1.90;;;;;;;0.79;100.00;96994.53;5022370;28;20622;-80
2020/12/27 08:07:03;;;;;;;5.07;2.20;;;;;;;0.62;100.00;96992.91;5027389;28;20210;-77
2020/12/27 08:09:30;;;;;;;5.73;2.53;;;;;;;0.69;100.00;96986.84;5026746;28;20213;-76
2020/12/27 08:11:57;;;;;;;4.23;1.90;;;;;;;0.82;100.00;96984.53;5030222;28;20199;-76
2020/12/27 08:14:31;;;;;;;4.00;2.53;;;;;;;0.72;100.00;96970.75;5021075;28;20209;-77
2020/12/27 08:16:58;;;;;;;5.60;2.07;;;;;;;0.97;100.00;96976.81;5021586;28;20249;-77
2020/12/27 08:19:25;;;;;;;3.40;2.23;;;;;;;0.75;100.00;96964.34;5030957;28;20217;-78
2020/12/27 08:21:51;;;;;;;4.80;2.10;;;;;;;0.78;100.00;96967.44;5032257;28;20267;-78
2020/12/27 08:24:18;;;;;;;3.90;2.37;;;;;;;0.56;100.00;96969.97;5034624;28;20192;-82
2020/12/27 08:26:46;;;;;;;3.10;2.00;;;;;;;0.72;100.00;96970.75;5035134;28;20226;-82
2020/12/27 08:29:15;;;;;;;8.47;2.07;;;;;;;1.06;100.00;96963.47;5025995;28;20199;-77
2020/12/27 08:31:43;;;;;;;4.83;2.37;;;;;;;0.74;100.00;96946.97;5030247;28;20243;-77
2020/12/27 08:34:12;;;;;;;5.00;2.40;;;;;;;0.54;100.00;96936.00;5029718;28;20298;-78
2020/12/27 08:36:46;;;;;;;4.07;2.07;;;;;;;0.81;100.00;96940.88;5029583;28;20220;-77
2020/12/27 08:39:21;;;;;;;2.60;2.03;;;;;;;0.96;100.00;96946.25;5024050;28;20229;-82
2020/12/27 08:41:59;;;;;;;4.37;2.47;;;;;;;1.05;100.00;96935.56;5031872;28;20198;-79
2020/12/27 08:44:47;;;;;;;3.67;2.23;;;;;;;1.01;100.00;96941.31;5009029;28;20614;-78
2020/12/27 08:47:24;;;;;;;5.77;2.20;;;;;;;0.94;100.00;96937.72;5013242;28;20211;-77
2020/12/27 08:49:56;;;;;;;5.83;2.77;;;;;;;0.96;100.00;96926.06;5022994;28;20246;-79
2020/12/27 08:52:24;;;;;;;4.00;2.03;;;;;;;1.08;100.00;96919.47;5022497;28;20232;-82
2020/12/27 08:54:54;;;;;;;3.70;2.27;;;;;;;0.98;100.00;96915.41;5030151;28;20254;-81
2020/12/27 08:57:21;;;;;;;5.80;2.50;;;;;;;1.05;100.00;96903.22;5030448;28;20227;-81
2020/12/27 09:00:07;;;;;;;5.77;2.40;;;;;;;1.38;100.00;96902.13;5024877;28;20274;-80
2020/12/27 09:02:35;;;;;;;5.33;2.80;;;;;;;0.92;100.00;96893.25;5030848;28;20223;-84
2020/12/27 09:05:07;;;;;;;4.87;2.53;;;;;;;1.33;100.00;96888.69;5017924;28;20265;-78
2020/12/27 09:07:36;;;;;;;3.40;2.20;;;;;;;1.34;100.00;96888.53;5032170;28;20205;-78
2020/12/27 09:10:07;;;;;;;4.77;2.43;;;;;;;1.35;98.64;96881.44;5032081;28;20312;-84
2020/12/27 09:12:35;;;;;;;6.10;3.37;;;;;;;1.21;100.00;96882.16;5030726;28;20210;-89
2020/12/27 09:15:01;;;;;;;8.23;2.90;;;;;;;1.42;98.50;96874.53;5028654;28;20242;-86
2020/12/27 09:17:29;;;;;;;5.53;3.30;;;;;;;1.33;98.57;96871.09;5033291;28;20255;-86
2020/12/27 09:19:57;;;;;;;4.53;2.23;;;;;;;1.41;95.76;96865.81;5028883;28;20250;-90
2020/12/27 09:22:24;;;;;;;9.10;3.50;;;;;;;1.54;97.72;96852.91;5030716;28;20211;-89
2020/12/27 09:25:06;;;;;;;5.80;2.60;;;;;;;1.81;94.52;96844.53;5019046;28;20222;-87
2020/12/27 09:27:33;;;;;;;5.03;2.10;;;;;;;1.96;94.28;96836.69;5013314;28;20202;-89
2020/12/27 09:30:01;;;;;;;3.03;1.87;;;;;;;1.85;94.52;96835.31;5017020;28;20286;-82
2020/12/27 09:32:33;;;;;;;4.07;2.47;;;;;;;2.15;92.17;96834.41;5015217;28;20644;-88
2020/12/27 09:35:01;;;;;;;4.60;2.13;;;;;;;1.98;90.87;96838.16;5003351;28;20219;-89
2020/12/27 09:37:34;;;;;;;5.10;2.70;;;;;;;2.03;92.75;96832.38;5016282;28;20206;-88
2020/12/27 09:40:03;;;;;;;5.50;2.87;;;;;;;1.51;95.23;96824.34;5008239;28;20246;-88
2020/12/27 09:42:33;;;;;;;5.47;2.70;;;;;;;1.43;98.82;96820.97;5003906;28;20234;-89
2020/12/27 09:45:17;;;;;;;5.30;2.60;;;;;;;1.31;98.44;96803.94;5004529;28;20228;-89
2020/12/27 09:47:50;;;;;;;6.20;2.27;;;;;;;1.47;96.42;96791.53;5002124;28;20622;-88
2020/12/27 09:50:29;;;;;;;4.40;2.50;;;;;;;1.69;96.49;96785.44;5006622;28;20223;-89
2020/12/27 09:52:56;;;;;;;2.67;2.23;;;;;;;1.67;95.21;96770.84;5018516;28;20225;-88
2020/12/27 09:55:23;;;;;;;3.37;2.37;;;;;;;1.64;96.08;96768.56;5020765;28;20261;-88
2020/12/27 09:57:51;;;;;;;3.90;2.27;;;;;;;1.70;94.73;96759.97;5017662;28;20211;-89
2020/12/27 10:00:18;;;;;;;5.80;2.67;;;;;;;1.57;95.96;96746.59;5024916;28;20229;-88
2020/12/27 10:02:44;;;;;;;5.90;2.80;;;;;;;1.81;92.05;96730.63;5011101;28;20211;-87
2020/12/27 10:05:12;;;;;;;4.20;2.50;;;;;;;1.82;92.80;96727.81;5009996;28;20262;-88
2020/12/27 10:07:43;;;;;;;6.43;2.30;;;;;;;1.81;91.47;96710.41;5003625;28;20214;-90
2020/12/27 10:10:11;;;;;;;5.60;2.27;;;;;;;1.75;92.64;96703.25;5000667;28;20306;-88
2020/12/27 10:12:38;;;;;;;3.77;2.30;;;;;;;2.01;89.63;96694.94;5001159;28;20207;-88
2020/12/27 10:15:07;;;;;;;4.70;2.57;;;;;;;1.67;90.93;96678.81;5011555;28;20228;-88
2020/12/27 10:17:34;;;;;;;4.13;1.97;;;;;;;1.74;91.88;96677.13;5004193;28;20204;-88
2020/12/27 10:20:01;;;;;;;4.83;2.47;;;;;;;1.96;89.40;96677.06;5011053;28;20246;-88
2020/12/27 10:22:29;;;;;;;3.60;2.20;;;;;;;2.15;89.11;96668.66;5009052;28;20290;-89
2020/12/27 10:24:56;;;;;;;3.73;2.40;;;;;;;1.68;93.36;96652.34;5024466;28;20231;-88
2020/12/27 10:27:24;;;;;;;3.03;2.13;;;;;;;1.81;91.21;96649.09;5029661;28;20259;-89
2020/12/27 10:29:51;;;;;;;3.37;2.07;;;;;;;1.91;91.78;96632.06;5034520;28;20199;-89
2020/12/27 10:32:18;;;;;;;3.40;2.17;;;;;;;1.98;91.22;96616.41;5018266;28;20705;-88
2020/12/27 10:34:45;;;;;;;5.37;2.60;;;;;;;1.77;93.54;96603.13;5017684;28;20238;-87
2020/12/27 10:37:12;;;;;;;4.43;2.37;;;;;;;1.75;92.53;96595.44;5017055;28;20215;-88
2020/12/27 10:39:39;;;;;;;5.33;2.40;;;;;;;1.87;91.81;96590.53;5013942;28;20218;-89
2020/12/27 10:42:07;;;;;;;5.73;2.30;;;;;;;1.67;93.27;96579.75;5018144;28;20234;-89
2020/12/27 10:44:34;;;;;;;4.83;2.20;;;;;;;2.09;92.31;96579.91;5009122;28;20290;-89
2020/12/27 10:47:01;;;;;;;5.77;2.33;;;;;;;2.13;92.18;96577.75;5008065;28;20214;-89
2020/12/27 10:49:28;;;;;;;3.60;2.40;;;;;;;2.02;90.47;96567.66;5005388;28;20212;-90
2020/12/27 10:51:55;;;;;;;6.30;2.53;;;;;;;1.96;92.04;96552.63;5015521;28;20298;-89
2020/12/27 10:54:21;;;;;;;6.80;2.20;;;;;;;2.35;88.79;96550.47;5000642;28;20294;-88
2020/12/27 10:56:49;;;;;;;2.90;2.00;;;;;;;2.64;84.61;96535.38;5004441;28;20614;-87
2020/12/27 10:59:17;;;;;;;4.87;2.50;;;;;;;2.09;89.12;96521.22;5017167;28;20207;-90
2020/12/27 11:01:45;;;;;;;3.63;2.23;;;;;;;2.29;87.36;96517.81;5014141;28;20219;-90
2020/12/27 11:04:12;;;;;;;3.80;1.80;;;;;;;2.03;85.27;96524.59;5016450;28;20238;-90
2020/12/27 11:06:41;;;;;;;2.97;1.77;;;;;;;2.18;84.62;96515.66;5033114;28;20321;-89
2020/12/27 11:09:09;;;;;;;3.17;2.07;;;;;;;2.39;84.06;96507.00;5026212;28;20259;-89
2020/12/27 11:11:37;;;;;;;5.00;2.77;;;;;;;2.01;85.98;96497.63;5001814;28;20272;-84
2020/12/27 11:14:04;;;;;;;3.50;2.10;;;;;;;2.23;86.53;96494.88;5010284;28;20293;-86
2020/12/27 11:16:32;;;;;;;4.70;2.50;;;;;;;2.40;86.42;96479.66;5021802;28;20230;-87
2020/12/27 11:18:59;;;;;;;4.03;2.43;;;;;;;2.22;87.55;96472.19;5021371;28;20218;-84
2020/12/27 11:21:26;;;;;;;5.30;2.63;;;;;;;2.47;86.56;96460.28;5016834;28;20223;-90
2020/12/27 11:23:53;;;;;;;6.23;2.60;;;;;;;2.47;85.52;96454.19;5012034;28;20219;-84
2020/12/27 11:26:20;;;;;;;4.60;2.73;;;;;;;2.29;87.27;96432.78;5017119;28;20334;-86
2020/12/27 11:28:47;;;;;;;5.90;2.70;;;;;;;2.06;91.54;96417.19;5019755;28;20211;-83
2020/12/27 11:31:16;;;;;;;4.40;2.37;;;;;;;2.41;89.65;96426.00;5007548;28;20204;-84
2020/12/27 11:33:45;;;;;;;3.93;2.80;;;;;;;2.12;92.14;96415.59;5013811;28;20283;-91
2020/12/27 11:36:12;;;;;;;5.20;2.83;;;;;;;2.02;92.50;96394.06;5019723;28;20230;-88
2020/12/27 11:38:39;;;;;;;4.93;2.87;;;;;;;2.06;93.21;96380.34;5011290;28;20302;-82